createdAt,value
2023-01-18T00:02:15.679Z,98907.84
2023-01-18T00:04:43.322Z,98907.03
2023-01-18T00:07:12.247Z,98909.72
2023-01-18T00:09:39.708Z,98920.09
2023-01-18T00:12:07.413Z,98918.41
2023-01-18T00:14:34.949Z,98917.56
2023-01-18T00:17:02.432Z,98911.66
2023-01-18T00:19:29.859Z,98911.66
2023-01-18T00:21:57.850Z,98913.41
2023-01-18T00:24:27.800Z,98916.13
2023-01-18T00:26:55.357Z,98916.22
2023-01-18T00:29:22.920Z,98910.19
2023-01-18T00:31:50.489Z,98913.69
2023-01-18T00:34:18.141Z,98913.78
2023-01-18T00:36:45.609Z,98908.72
2023-01-18T00:39:15.432Z,98910.47
2023-01-18T00:42:04.945Z,98920.00
2023-01-18T00:44:31.946Z,98914.00
2023-01-18T00:46:59.506Z,98908.91
2023-01-18T00:49:27.050Z,98923.63
2023-01-18T00:51:56.783Z,98916.75
2023-01-18T00:54:25.565Z,98921.13
2023-01-18T00:56:54.533Z,98922.88
2023-01-18T00:59:22.038Z,98920.38
2023-01-18T01:03:23.501Z,98917.91
2023-01-18T01:06:08.555Z,98923.19
2023-01-18T01:08:36.110Z,98917.25
2023-01-18T01:11:07.620Z,98912.16
2023-01-18T01:13:52.672Z,98914.03
2023-01-18T01:16:37.482Z,98921.78
2023-01-18T01:19:23.717Z,98916.63
2023-01-18T01:22:08.507Z,98922.63
2023-01-18T01:24:53.502Z,98921.91
2023-01-18T01:27:21.033Z,98919.41
2023-01-18T01:29:48.557Z,98928.06
2023-01-18T01:32:16.089Z,98931.53
2023-01-18T01:34:44.900Z,98934.03
2023-01-18T01:37:12.369Z,98942.72
2023-01-18T01:39:39.856Z,98939.31
2023-01-18T01:42:07.389Z,98937.63
2023-01-18T01:44:42.045Z,98937.63
2023-01-18T01:47:10.724Z,98940.19
2023-01-18T01:49:40.121Z,98945.38
2023-01-18T01:52:09.679Z,98953.16
2023-01-18T01:54:37.918Z,98952.25
2023-01-18T01:57:06.342Z,98957.34
2023-01-18T01:59:33.878Z,98957.44
2023-01-18T02:02:01.427Z,98957.34
2023-01-18T02:04:28.943Z,98966.78
2023-01-18T02:06:56.429Z,98962.63
2023-01-18T02:09:25.345Z,98966.13
2023-01-18T02:11:52.792Z,98963.53
2023-01-18T02:14:20.369Z,98959.28
2023-01-18T02:16:52.680Z,98961.97
2023-01-18T02:19:28.625Z,98962.78
2023-01-18T02:21:56.837Z,98967.97
2023-01-18T02:24:32.042Z,98966.31
2023-01-18T02:27:04.241Z,98965.50
2023-01-18T02:29:38.860Z,98967.25
2023-01-18T02:32:13.768Z,98974.09
2023-01-18T02:34:42.144Z,98972.44
2023-01-18T02:37:12.012Z,98971.50
2023-01-18T02:39:42.447Z,98969.00
2023-01-18T02:42:28.666Z,98963.81
2023-01-18T02:45:14.815Z,98977.50
2023-01-18T02:47:42.638Z,98982.78
2023-01-18T02:50:10.954Z,98982.78
2023-01-18T02:52:39.495Z,98978.53
2023-01-18T02:55:07.608Z,98973.34
2023-01-18T02:57:35.064Z,98973.47
2023-01-18T03:00:05.062Z,98975.19
2023-01-18T03:02:32.604Z,98979.53
2023-01-18T03:05:00.193Z,98980.38
2023-01-18T03:07:29.876Z,98982.22
2023-01-18T03:09:57.846Z,98982.22
2023-01-18T03:12:25.762Z,98979.63
2023-01-18T03:14:54.620Z,98984.91
2023-01-18T03:17:24.518Z,98980.56
2023-01-18T03:20:11.190Z,98986.56
2023-01-18T03:22:57.277Z,98993.53
2023-01-18T03:25:26.249Z,98985.00
2023-01-18T03:28:11.425Z,98985.13
2023-01-18T03:30:56.371Z,98982.59
2023-01-18T03:33:44.895Z,98986.09
2023-01-18T03:36:13.142Z,98988.78
2023-01-18T03:38:42.396Z,98996.66
2023-01-18T03:41:09.933Z,98994.19
2023-01-18T03:43:37.696Z,98996.00
2023-01-18T03:46:05.685Z,98993.50
2023-01-18T03:48:34.625Z,98995.28
2023-01-18T03:51:03.711Z,98994.53
2023-01-18T03:53:32.787Z,99002.31
2023-01-18T03:56:01.918Z,99004.06
2023-01-18T03:58:31.320Z,99008.50
2023-01-18T04:00:58.847Z,99008.56
2023-01-18T04:03:26.373Z,99011.25
2023-01-18T04:05:55.266Z,99008.78
2023-01-18T04:08:22.756Z,99014.97
2023-01-18T04:10:50.265Z,99011.56
2023-01-18T04:13:17.850Z,99015.13
2023-01-18T04:15:45.376Z,99018.66
2023-01-18T04:18:12.913Z,99017.91
2023-01-18T04:20:40.393Z,99019.78
2023-01-18T04:23:09.254Z,99017.19
2023-01-18T04:25:38.369Z,99022.50
2023-01-18T04:28:06.219Z,99031.94
2023-01-18T04:30:33.917Z,99027.69
2023-01-18T04:33:01.938Z,99032.03
2023-01-18T04:35:29.507Z,99031.22
2023-01-18T04:37:56.985Z,99032.03
2023-01-18T04:40:25.817Z,99033.81
2023-01-18T04:42:54.210Z,99036.38
2023-01-18T04:45:21.725Z,99039.91
2023-01-18T04:47:49.173Z,99039.91
2023-01-18T04:50:16.978Z,99036.38
2023-01-18T04:52:44.727Z,99044.25
2023-01-18T04:55:15.833Z,99031.31
2023-01-18T04:57:44.990Z,99044.25
2023-01-18T05:00:13.185Z,99046.09
2023-01-18T05:02:40.795Z,99056.38
2023-01-18T05:05:08.598Z,99050.34
2023-01-18T05:07:36.136Z,99056.38
2023-01-18T05:10:03.958Z,99062.47
2023-01-18T05:12:31.633Z,99062.47
2023-01-18T05:15:00.490Z,99057.28
2023-01-18T05:17:30.516Z,99066.81
2023-01-18T05:19:58.114Z,99067.56
2023-01-18T05:22:25.681Z,99074.50
2023-01-18T05:24:53.529Z,99072.81
2023-01-18T05:27:21.039Z,99078.00
2023-01-18T05:29:48.792Z,99079.75
2023-01-18T05:32:17.664Z,99083.19
2023-01-18T05:34:45.186Z,99090.94
2023-01-18T05:37:12.685Z,99088.41
2023-01-18T05:39:40.190Z,99085.94
2023-01-18T05:42:08.515Z,99087.69
2023-01-18T05:44:36.015Z,99094.63
2023-01-18T05:47:03.422Z,99098.13
2023-01-18T05:49:32.314Z,99103.31
2023-01-18T05:51:59.824Z,99100.91
2023-01-18T05:54:27.305Z,99105.22
2023-01-18T05:56:54.833Z,99105.31
2023-01-18T05:59:22.372Z,99099.31
2023-01-18T06:01:50.115Z,99102.91
2023-01-18T06:04:17.853Z,99102.16
2023-01-18T06:06:46.770Z,99114.34
2023-01-18T06:09:14.272Z,99116.09
2023-01-18T06:11:41.786Z,99115.25
2023-01-18T06:14:09.466Z,99122.94
2023-01-18T06:16:37.012Z,99121.13
2023-01-18T06:19:05.641Z,99115.94
2023-01-18T06:21:33.155Z,99118.53
2023-01-18T06:24:02.049Z,99131.38
2023-01-18T06:26:31.166Z,99131.38
2023-01-18T06:28:58.609Z,99129.72
2023-01-18T06:31:26.121Z,99130.66
2023-01-18T06:33:53.706Z,99133.22
2023-01-18T06:36:21.241Z,99139.16
2023-01-18T06:38:48.672Z,99139.16
2023-01-18T06:41:17.908Z,99140.81
2023-01-18T06:43:45.501Z,99141.66
2023-01-18T06:46:12.972Z,99150.25
2023-01-18T06:48:40.603Z,99155.34
2023-01-18T06:51:08.319Z,99157.88
2023-01-18T06:53:37.865Z,99158.69
2023-01-18T06:56:10.105Z,99163.88
2023-01-18T06:58:39.016Z,99169.88
2023-01-18T07:01:06.883Z,99174.13
2023-01-18T07:03:34.745Z,99177.56
2023-01-18T07:06:02.836Z,99177.56
2023-01-18T07:08:31.421Z,99177.56
2023-01-18T07:10:59.445Z,99189.66
2023-01-18T07:13:27.033Z,99186.16
2023-01-18T07:16:00.747Z,99194.84
2023-01-18T07:18:28.837Z,99196.50
2023-01-18T07:20:59.961Z,99198.09
2023-01-18T07:23:27.480Z,99199.75
2023-01-18T07:26:01.554Z,99201.59
2023-01-18T07:28:29.148Z,99199.00
2023-01-18T07:30:58.015Z,99207.63
2023-01-18T07:33:25.489Z,99210.19
2023-01-18T07:35:53.312Z,99212.78
2023-01-18T07:38:20.958Z,99219.72
2023-01-18T07:40:48.501Z,99217.13
2023-01-18T07:43:16.218Z,99220.56
2023-01-18T07:45:43.846Z,99218.88
2023-01-18T07:48:12.704Z,99225.72
2023-01-18T07:50:40.162Z,99222.31
2023-01-18T07:53:09.224Z,99226.66
2023-01-18T07:55:38.781Z,99226.66
2023-01-18T07:58:06.242Z,99230.16
2023-01-18T08:00:34.753Z,99232.75
2023-01-18T08:03:02.784Z,99240.44
2023-01-18T08:05:31.802Z,99248.28
2023-01-18T08:07:59.540Z,99246.53
2023-01-18T08:10:27.554Z,99243.84
2023-01-18T08:12:55.162Z,99246.44
2023-01-18T08:15:22.736Z,99249.03
2023-01-18T08:17:51.234Z,99242.94
2023-01-18T08:20:20.830Z,99249.88
2023-01-18T08:22:49.678Z,99260.13
2023-01-18T08:25:17.500Z,99265.31
2023-01-18T08:27:45.016Z,99262.72
2023-01-18T08:30:12.848Z,99261.84
2023-01-18T08:32:40.865Z,99266.09
2023-01-18T08:35:08.939Z,99270.34
2023-01-18T08:37:36.350Z,99266.94
2023-01-18T08:40:05.674Z,99277.19
2023-01-18T08:42:33.097Z,99279.78
2023-01-18T08:45:00.859Z,99283.13
2023-01-18T08:47:28.376Z,99283.03
2023-01-18T08:49:56.461Z,99282.97
2023-01-18T08:52:24.032Z,99287.31
2023-01-18T08:54:52.422Z,99296.66
2023-01-18T08:57:21.319Z,99296.47
2023-01-18T08:59:48.718Z,99291.25
2023-01-18T09:02:16.776Z,99299.66
2023-01-18T09:04:48.438Z,99299.50
2023-01-18T09:07:15.908Z,99298.59
2023-01-18T09:09:44.793Z,99303.59
2023-01-18T09:12:12.334Z,99298.31
2023-01-18T09:14:41.240Z,99305.09
2023-01-18T09:17:08.736Z,99313.63
2023-01-18T09:19:36.139Z,99320.38
2023-01-18T09:22:03.667Z,99319.38
2023-01-18T09:24:31.204Z,99326.16
2023-01-18T09:26:58.764Z,99324.22
2023-01-18T09:29:26.360Z,99337.19
2023-01-18T09:31:55.920Z,99341.44
2023-01-18T09:34:23.590Z,99343.88
2023-01-18T09:36:51.327Z,99346.47
2023-01-18T09:39:18.969Z,99346.47
2023-01-18T09:41:49.314Z,99346.38
2023-01-18T09:44:18.579Z,99352.22
2023-01-18T09:46:46.221Z,99359.84
2023-01-18T09:49:16.661Z,99353.66
2023-01-18T09:51:45.908Z,99356.75
2023-01-18T09:54:19.450Z,99360.84
2023-01-18T09:56:48.471Z,99357.16
2023-01-18T09:59:19.287Z,99369.03
2023-01-18T10:01:47.031Z,99379.22
2023-01-18T10:04:17.417Z,99374.53
2023-01-18T10:06:45.940Z,99380.22
2023-01-18T10:09:15.551Z,99373.78
2023-01-18T10:11:47.260Z,99373.41
2023-01-18T10:14:16.826Z,99375.66
2023-01-18T10:16:44.393Z,99371.06
2023-01-18T10:19:14.652Z,99372.38
2023-01-18T10:21:47.419Z,99378.97
2023-01-18T10:24:22.085Z,99380.44
2023-01-18T10:26:49.989Z,99381.13
2023-01-18T10:29:18.157Z,99383.44
2023-01-18T10:31:47.324Z,99378.00
2023-01-18T10:34:15.597Z,99376.88
2023-01-18T10:36:43.979Z,99375.59
2023-01-18T10:39:23.824Z,99372.66
2023-01-18T10:41:51.418Z,99376.44
2023-01-18T10:44:18.894Z,99363.22
2023-01-18T10:46:46.504Z,99380.09
2023-01-18T10:49:28.963Z,99371.91
2023-01-18T10:51:56.500Z,99383.59
2023-01-18T10:54:27.121Z,99381.38
2023-01-18T10:57:02.225Z,99380.19
2023-01-18T10:59:33.213Z,99374.53
2023-01-18T11:02:00.852Z,99374.97
2023-01-18T11:04:29.150Z,99374.72
2023-01-18T11:06:57.162Z,99368.28
2023-01-18T11:09:40.477Z,99374.88
2023-01-18T11:12:36.121Z,99374.66
2023-01-18T11:15:23.732Z,99365.75
2023-01-18T11:18:01.434Z,99367.03
2023-01-18T11:20:33.335Z,99368.50
2023-01-18T11:23:01.916Z,99375.94
2023-01-18T11:25:37.634Z,99369.72
2023-01-18T11:28:07.412Z,99367.75
2023-01-18T11:30:34.983Z,99360.59
2023-01-18T11:33:02.666Z,99369.75
2023-01-18T11:35:32.320Z,99363.44
2023-01-18T11:38:00.553Z,99367.31
2023-01-18T11:40:28.966Z,99367.84
2023-01-18T11:42:59.677Z,99367.44
2023-01-18T11:45:27.838Z,99375.81
2023-01-18T11:47:57.956Z,99368.53
2023-01-18T11:50:28.352Z,99372.31
2023-01-18T11:52:57.615Z,99373.47
2023-01-18T11:55:26.585Z,99373.97
2023-01-18T11:57:54.501Z,99374.41
2023-01-18T12:00:28.658Z,99368.69
2023-01-18T12:03:04.161Z,99370.91
2023-01-18T12:05:42.391Z,99371.31
2023-01-18T12:08:15.881Z,99374.25
2023-01-18T12:10:45.201Z,99373.84
2023-01-18T12:13:20.198Z,99383.84
2023-01-18T12:16:00.977Z,99377.59
2023-01-18T12:18:41.772Z,99368.59
2023-01-18T12:21:09.845Z,99372.81
2023-01-18T12:23:45.140Z,99369.13
2023-01-18T12:26:16.719Z,99369.66
2023-01-18T12:28:50.419Z,99372.78
2023-01-18T12:31:22.246Z,99376.13
2023-01-18T12:33:54.618Z,99369.03
2023-01-18T12:36:29.346Z,99379.47
2023-01-18T12:38:57.316Z,99377.78
2023-01-18T12:41:37.818Z,99368.41
2023-01-18T12:44:30.615Z,99364.97
2023-01-18T12:47:02.848Z,99376.13
2023-01-18T12:49:30.798Z,99370.09
2023-01-18T12:52:12.930Z,99383.19
2023-01-18T12:54:45.998Z,99373.72
2023-01-18T12:57:14.070Z,99375.38
2023-01-18T12:59:42.228Z,99377.97
2023-01-18T13:02:24.582Z,99381.34
2023-01-18T13:04:52.754Z,99374.25
2023-01-18T13:07:21.897Z,99377.69
2023-01-18T13:09:50.079Z,99387.16
2023-01-18T13:12:17.567Z,99379.97
2023-01-18T13:14:45.440Z,99379.75
2023-01-18T13:17:14.831Z,99378.63
2023-01-18T13:19:42.996Z,99381.94
2023-01-18T13:22:13.861Z,99382.66
2023-01-18T13:24:46.371Z,99388.41
2023-01-18T13:27:14.278Z,99391.63
2023-01-18T13:29:41.972Z,99395.69
2023-01-18T13:32:28.838Z,99389.31
2023-01-18T13:35:54.361Z,99382.88
2023-01-18T13:38:40.299Z,99375.03
2023-01-18T13:41:10.553Z,99388.50
2023-01-18T13:44:03.804Z,99385.69
2023-01-18T13:46:33.950Z,99381.16
2023-01-18T13:49:03.153Z,99378.09
2023-01-18T13:51:57.367Z,99389.53
2023-01-18T13:55:02.179Z,99382.03
2023-01-18T13:57:31.635Z,99390.47
2023-01-18T14:00:00.053Z,99387.63
2023-01-18T14:02:32.027Z,99391.78
2023-01-18T14:05:02.489Z,99392.50
2023-01-18T14:07:38.674Z,99398.31
2023-01-18T14:10:08.220Z,99394.66
2023-01-18T14:12:49.738Z,99397.97
2023-01-18T14:15:47.237Z,99402.50
2023-01-18T14:18:22.156Z,99420.81
2023-01-18T14:21:16.483Z,99407.00
2023-01-18T14:24:06.444Z,99411.38
2023-01-18T14:26:36.161Z,99410.09
2023-01-18T14:31:21.276Z,99420.06
2023-01-18T14:33:49.613Z,99414.13
2023-01-18T14:36:21.688Z,99403.19
2023-01-18T14:39:07.283Z,99406.25
2023-01-18T14:41:35.354Z,99416.13
2023-01-18T14:44:03.079Z,99408.75
2023-01-18T14:46:32.741Z,99415.28
2023-01-18T14:49:02.552Z,99407.31
2023-01-18T14:51:31.978Z,99413.81
2023-01-18T14:54:01.958Z,99419.28
2023-01-18T14:56:31.962Z,99419.59
2023-01-18T14:59:01.414Z,99424.69
2023-01-18T15:01:33.324Z,99424.44
2023-01-18T15:04:02.479Z,99427.47
2023-01-18T15:06:41.782Z,99431.28
2023-01-18T15:09:10.442Z,99423.88
2023-01-18T15:11:39.110Z,99443.44
2023-01-18T15:14:10.208Z,99440.81
2023-01-18T15:16:39.969Z,99450.44
2023-01-18T15:19:14.679Z,99442.59
2023-01-18T15:21:43.720Z,99440.13
2023-01-18T15:24:15.412Z,99441.38
2023-01-18T15:26:45.829Z,99435.44
2023-01-18T15:29:17.703Z,99451.94
2023-01-18T15:31:52.766Z,99465.31
2023-01-18T15:34:26.965Z,99452.25
2023-01-18T15:36:56.452Z,99467.53
2023-01-18T15:39:24.180Z,99450.44
2023-01-18T15:41:52.829Z,99455.66
2023-01-18T15:44:43.481Z,99469.03
2023-01-18T15:47:17.755Z,99469.97
2023-01-18T15:49:49.917Z,99468.19
2023-01-18T15:52:17.911Z,99470.19
2023-01-18T15:54:50.606Z,99477.38
2023-01-18T15:57:20.611Z,99480.34
2023-01-18T15:59:49.150Z,99476.91
2023-01-18T16:02:20.045Z,99474.47
2023-01-18T16:04:49.689Z,99485.75
2023-01-18T16:07:37.725Z,99490.47
2023-01-18T16:10:30.448Z,99470.75
2023-01-18T16:13:22.536Z,99480.25
2023-01-18T16:16:09.418Z,99478.69
2023-01-18T16:18:43.864Z,99469.72
2023-01-18T16:21:15.490Z,99479.81
2023-01-18T16:23:46.147Z,99481.72
2023-01-18T16:26:15.137Z,99481.84
2023-01-18T16:28:42.951Z,99476.91
2023-01-18T16:31:10.635Z,99476.91
2023-01-18T16:33:38.295Z,99484.13
2023-01-18T16:36:24.224Z,99479.03
2023-01-18T16:38:51.947Z,99484.97
2023-01-18T16:41:19.631Z,99472.22
2023-01-18T16:43:49.330Z,99484.56
2023-01-18T16:46:17.215Z,99483.13
2023-01-18T16:48:44.969Z,99484.97
2023-01-18T16:51:18.631Z,99488.53
2023-01-18T16:53:48.224Z,99495.63
2023-01-18T16:56:16.624Z,99496.56
2023-01-18T16:58:44.770Z,99497.91
2023-01-18T17:01:15.716Z,99513.16
2023-01-18T17:03:43.963Z,99514.81
2023-01-18T17:06:17.676Z,99508.66
2023-01-18T17:08:45.930Z,99512.09
2023-01-18T17:11:13.925Z,99515.00
2023-01-18T17:13:42.052Z,99515.75
2023-01-18T17:16:14.208Z,99523.59
2023-01-18T17:18:42.189Z,99514.81
2023-01-18T17:21:11.096Z,99525.25
2023-01-18T17:23:40.910Z,99520.03
2023-01-18T17:26:09.082Z,99527.09
2023-01-18T17:28:36.747Z,99524.41
2023-01-18T17:31:04.567Z,99520.97
2023-01-18T17:33:32.661Z,99530.47
2023-01-18T17:36:00.395Z,99526.09
2023-01-18T17:41:00.609Z,99524.19
2023-01-18T17:43:34.027Z,99537.34
2023-01-18T17:46:04.113Z,99532.31
2023-01-18T17:48:31.963Z,99539.31
2023-01-18T17:50:59.708Z,99547.88
2023-01-18T17:53:27.487Z,99544.44
2023-01-18T17:55:55.289Z,99551.50
2023-01-18T17:58:24.337Z,99555.91
2023-01-18T18:00:52.298Z,99555.16
2023-01-18T18:03:20.685Z,99547.47
2023-01-18T18:05:48.438Z,99543.25
2023-01-18T18:08:18.451Z,99551.72
2023-01-18T18:10:46.163Z,99555.28
2023-01-18T18:13:13.831Z,99560.28
2023-01-18T18:15:49.261Z,99551.50
2023-01-18T18:18:24.196Z,99563.41
2023-01-18T18:20:56.807Z,99559.25
2023-01-18T18:23:24.559Z,99566.13
2023-01-18T18:25:52.242Z,99570.31
2023-01-18T18:28:20.000Z,99570.31
2023-01-18T18:30:49.565Z,99575.41
2023-01-18T18:33:18.305Z,99580.53
2023-01-18T18:35:46.363Z,99571.97
2023-01-18T18:38:15.318Z,99574.56
2023-01-18T18:40:43.143Z,99582.63
2023-01-18T18:43:10.865Z,99576.75
2023-01-18T18:45:38.614Z,99596.78
2023-01-18T18:48:08.030Z,99586.56
2023-01-18T18:50:35.698Z,99590.72
2023-01-18T18:53:03.498Z,99590.00
2023-01-18T18:55:31.314Z,99589.19
2023-01-18T18:57:59.203Z,99590.63
2023-01-18T19:00:27.312Z,99589.59
2023-01-18T19:02:58.979Z,99598.88
2023-01-18T19:05:28.708Z,99598.88
2023-01-18T19:07:56.539Z,99593.66
2023-01-18T19:10:27.369Z,99602.31
2023-01-18T19:12:55.920Z,99598.59
2023-01-18T19:15:23.760Z,99600.25
2023-01-18T19:17:52.194Z,99601.91
2023-01-18T19:20:20.709Z,99606.00
2023-01-18T19:22:50.566Z,99612.13
2023-01-18T19:25:18.974Z,99611.84
2023-01-18T19:27:46.999Z,99609.34
2023-01-18T19:30:18.115Z,99603.19
2023-01-18T19:32:46.935Z,99618.09
2023-01-18T19:35:14.894Z,99611.00
2023-01-18T19:37:42.622Z,99610.06
2023-01-18T19:40:13.110Z,99625.00
2023-01-18T19:42:41.073Z,99613.91
2023-01-18T19:45:11.465Z,99614.75
2023-01-18T19:47:41.776Z,99615.59
2023-01-18T19:50:10.406Z,99619.78
2023-01-18T19:52:38.255Z,99630.22
2023-01-18T19:55:06.692Z,99625.00
2023-01-18T19:57:35.827Z,99630.94
2023-01-18T20:00:07.025Z,99631.47
2023-01-18T20:02:34.993Z,99630.63
2023-01-18T20:05:03.597Z,99641.19
2023-01-18T20:07:31.679Z,99624.88
2023-01-18T20:09:59.443Z,99623.50
2023-01-18T20:12:31.250Z,99625.19
2023-01-18T20:15:00.516Z,99634.59
2023-01-18T20:17:28.264Z,99633.88
2023-01-18T20:19:55.903Z,99637.09
2023-01-18T20:22:24.208Z,99636.03
2023-01-18T20:24:51.913Z,99643.03
2023-01-18T20:27:19.765Z,99649.19
2023-01-18T20:29:47.634Z,99651.81
2023-01-18T20:32:17.996Z,99649.09
2023-01-18T20:34:46.989Z,99650.69
2023-01-18T20:37:15.902Z,99655.25
2023-01-18T20:39:43.655Z,99659.44
2023-01-18T20:42:11.422Z,99668.00
2023-01-18T20:44:40.421Z,99661.84
2023-01-18T20:47:08.143Z,99663.63
2023-01-18T20:49:40.301Z,99662.56
2023-01-18T20:52:08.112Z,99663.28
2023-01-18T20:54:36.585Z,99666.66
2023-01-18T20:57:04.855Z,99665.00
2023-01-18T20:59:32.681Z,99661.44
2023-01-18T21:02:00.534Z,99661.53
2023-01-18T21:04:28.422Z,99676.34
2023-01-18T21:06:58.290Z,99673.72
2023-01-18T21:09:26.428Z,99675.59
2023-01-18T21:11:54.275Z,99678.22
2023-01-18T21:14:22.498Z,99673.41
2023-01-18T21:16:50.261Z,99682.94
2023-01-18T21:19:18.257Z,99677.72
2023-01-18T21:21:46.078Z,99682.94
2023-01-18T21:24:15.219Z,99688.22
2023-01-18T21:26:42.942Z,99693.53
2023-01-18T21:29:10.618Z,99682.16
2023-01-18T21:31:40.133Z,99690.00
2023-01-18T21:34:08.722Z,99690.09
2023-01-18T21:36:36.496Z,99690.38
2023-01-18T21:39:04.338Z,99692.38
2023-01-18T21:41:56.300Z,99690.81
2023-01-18T21:44:41.627Z,99689.22
2023-01-18T21:47:09.287Z,99693.72
2023-01-18T21:52:59.455Z,99693.16
2023-01-18T21:55:27.105Z,99699.41
2023-01-18T21:58:19.119Z,99687.53
2023-01-18T22:00:46.836Z,99691.25
2023-01-18T22:03:15.299Z,99690.63
2023-01-18T22:05:43.028Z,99689.97
2023-01-18T22:08:10.795Z,99689.34
2023-01-18T22:10:38.513Z,99691.03
2023-01-18T22:13:07.589Z,99697.25
2023-01-18T22:15:35.300Z,99702.56
2023-01-18T22:18:03.363Z,99706.94
2023-01-18T22:20:31.811Z,99709.38
2023-01-18T22:22:59.712Z,99703.13
2023-01-18T22:25:27.423Z,99705.63
2023-01-18T22:27:55.147Z,99713.53
2023-01-18T22:30:24.348Z,99698.09
2023-01-18T22:32:52.004Z,99700.78
2023-01-18T22:35:19.860Z,99714.47
2023-01-18T22:37:47.561Z,99718.66
2023-01-18T22:40:15.380Z,99715.31
2023-01-18T22:42:43.109Z,99710.84
2023-01-18T22:45:11.660Z,99702.91
2023-01-18T22:47:43.213Z,99703.56
2023-01-18T22:50:12.145Z,99711.28
2023-01-18T22:52:39.895Z,99707.94
2023-01-18T22:55:08.169Z,99714.94
2023-01-18T22:57:35.901Z,99727.75
2023-01-18T23:00:03.673Z,99713.78
2023-01-18T23:02:33.265Z,99713.78
2023-01-18T23:05:02.384Z,99717.13
2023-01-18T23:07:30.136Z,99711.91
2023-01-18T23:09:57.885Z,99726.66
2023-01-18T23:12:25.595Z,99719.72
2023-01-18T23:15:11.013Z,99726.66
2023-01-18T23:17:43.153Z,99722.34
2023-01-18T23:20:14.871Z,99730.91
2023-01-18T23:22:42.672Z,99727.56
2023-01-18T23:25:10.858Z,99735.38
2023-01-18T23:27:38.615Z,99740.59
2023-01-18T23:30:09.245Z,99730.91
2023-01-18T23:32:37.384Z,99744.91
2023-01-18T23:35:07.707Z,99730.09
2023-01-18T23:37:36.805Z,99739.47
2023-01-18T23:40:22.441Z,99731.75
2023-01-18T23:43:07.756Z,99730.09
2023-01-18T23:45:53.117Z,99737.81
2023-01-18T23:48:38.737Z,99731.84
2023-01-18T23:51:24.162Z,99730.91
2023-01-18T23:54:11.703Z,99743.19
2023-01-18T23:56:39.462Z,99742.28
2023-01-18T23:59:07.077Z,99741.97
